createdAt,value
2023-01-05T00:01:53.479Z,9.27
2023-01-05T00:04:20.997Z,9.28
2023-01-05T00:06:57.673Z,9.32
2023-01-05T00:09:25.167Z,9.41
2023-01-05T00:12:11.176Z,9.44
2023-01-05T00:14:57.069Z,9.39
2023-01-05T00:17:45.037Z,9.39
2023-01-05T00:20:38.147Z,9.41
2023-01-05T00:23:06.098Z,9.42
2023-01-05T00:25:36.513Z,9.48
2023-01-05T00:28:04.413Z,9.43
2023-01-05T00:30:38.101Z,9.51
2023-01-05T00:33:08.748Z,9.51
2023-01-05T00:35:36.105Z,9.62
2023-01-05T00:38:07.952Z,9.63
2023-01-05T00:40:36.026Z,9.68
2023-01-05T00:43:10.470Z,9.69
2023-01-05T00:45:38.490Z,9.64
2023-01-05T00:48:13.974Z,9.62
2023-01-05T00:50:41.234Z,9.64
2023-01-05T00:53:09.079Z,9.68
2023-01-05T00:55:36.412Z,9.66
2023-01-05T00:58:04.436Z,9.59
2023-01-05T01:00:32.172Z,9.56
2023-01-05T01:03:01.451Z,9.63
2023-01-05T01:05:29.027Z,9.59
2023-01-05T01:07:57.519Z,9.64
2023-01-05T01:10:25.591Z,9.64
2023-01-05T01:12:55.209Z,9.61
2023-01-05T01:15:22.600Z,9.55
2023-01-05T01:17:49.899Z,9.57
2023-01-05T01:20:17.900Z,9.54
2023-01-05T01:22:49.811Z,9.56
2023-01-05T01:25:17.450Z,9.60
2023-01-05T01:27:50.353Z,9.57
2023-01-05T01:30:17.995Z,9.70
2023-01-05T01:32:45.661Z,9.65
2023-01-05T01:35:14.050Z,9.54
2023-01-05T01:37:41.445Z,9.56
2023-01-05T01:40:12.761Z,9.59
2023-01-05T01:42:41.387Z,9.63
2023-01-05T01:45:24.807Z,9.64
2023-01-05T01:48:00.895Z,9.59
2023-01-05T01:50:42.099Z,9.65
2023-01-05T01:53:14.942Z,9.62
2023-01-05T01:55:43.764Z,9.58
2023-01-05T01:58:15.324Z,9.59
2023-01-05T02:00:43.461Z,9.56
2023-01-05T02:03:11.351Z,9.58
2023-01-05T02:05:39.711Z,9.50
2023-01-05T02:08:16.095Z,9.49
2023-01-05T02:11:01.919Z,9.49
2023-01-05T02:13:48.044Z,9.52
2023-01-05T02:16:24.668Z,9.54
2023-01-05T02:19:13.745Z,9.51
2023-01-05T02:22:30.584Z,9.52
2023-01-05T02:25:48.902Z,9.43
2023-01-05T02:28:38.128Z,9.42
2023-01-05T02:31:08.498Z,9.44
2023-01-05T02:34:13.272Z,8.99
2023-01-05T02:37:06.275Z,8.85
2023-01-05T02:39:58.686Z,8.74
2023-01-05T02:42:30.999Z,8.62
2023-01-05T02:45:02.792Z,8.63
2023-01-05T02:47:30.387Z,8.68
2023-01-05T02:50:10.253Z,8.70
2023-01-05T02:52:54.577Z,8.74
2023-01-05T02:55:29.871Z,8.78
2023-01-05T02:58:17.712Z,8.81
2023-01-05T03:00:52.285Z,8.92
2023-01-05T03:03:25.803Z,9.06
2023-01-05T03:05:59.725Z,9.08
2023-01-05T03:08:36.613Z,9.12
2023-01-05T03:11:27.623Z,9.21
2023-01-05T03:14:14.032Z,9.20
2023-01-05T03:16:45.994Z,9.20
2023-01-05T03:19:39.878Z,9.28
2023-01-05T03:22:47.195Z,9.22
2023-01-05T03:25:37.724Z,9.43
2023-01-05T03:28:33.915Z,9.37
2023-01-05T03:31:32.917Z,9.36
2023-01-05T03:34:34.808Z,9.37
2023-01-05T03:37:07.537Z,9.42
2023-01-05T03:39:38.792Z,9.40
2023-01-05T03:42:10.245Z,9.36
2023-01-05T03:44:45.024Z,9.47
2023-01-05T03:47:15.768Z,9.53
2023-01-05T03:49:44.879Z,9.51
2023-01-05T03:52:12.582Z,9.45
2023-01-05T03:54:42.032Z,9.45
2023-01-05T03:57:09.491Z,9.50
2023-01-05T03:59:36.992Z,9.50
2023-01-05T04:02:05.187Z,9.37
2023-01-05T04:04:33.487Z,9.26
2023-01-05T04:07:05.569Z,9.09
2023-01-05T04:09:34.454Z,8.89
2023-01-05T04:12:02.464Z,8.53
2023-01-05T04:14:34.180Z,8.20
2023-01-05T04:17:01.579Z,8.03
2023-01-05T04:19:28.989Z,7.98
2023-01-05T04:21:57.061Z,7.94
2023-01-05T04:24:26.034Z,7.97
2023-01-05T04:26:53.267Z,8.03
2023-01-05T04:29:24.502Z,8.02
2023-01-05T04:31:51.838Z,7.98
2023-01-05T04:34:21.104Z,8.26
2023-01-05T04:36:50.842Z,8.20
2023-01-05T04:39:21.037Z,8.36
2023-01-05T04:41:50.790Z,8.31
2023-01-05T04:44:20.665Z,8.31
2023-01-05T04:46:50.415Z,8.41
2023-01-05T04:49:19.620Z,8.33
2023-01-05T04:51:49.627Z,8.49
2023-01-05T04:54:18.129Z,8.49
2023-01-05T04:56:45.718Z,8.46
2023-01-05T04:59:14.097Z,8.62
2023-01-05T05:01:43.713Z,8.52
2023-01-05T05:04:13.659Z,8.52
2023-01-05T05:06:41.913Z,8.54
2023-01-05T05:09:09.581Z,8.54
2023-01-05T05:11:39.277Z,8.56
2023-01-05T05:14:08.880Z,8.56
2023-01-05T05:16:36.292Z,8.49
2023-01-05T05:19:06.669Z,8.52
2023-01-05T05:21:34.037Z,8.55
2023-01-05T05:24:01.678Z,8.44
2023-01-05T05:26:29.134Z,8.48
2023-01-05T05:29:16.534Z,8.49
2023-01-05T05:32:08.752Z,8.46
2023-01-05T05:34:39.006Z,8.43
2023-01-05T05:37:36.717Z,8.54
2023-01-05T05:40:06.904Z,8.42
2023-01-05T05:42:34.374Z,8.45
2023-01-05T05:45:01.931Z,8.39
2023-01-05T05:47:39.945Z,8.28
2023-01-05T05:50:18.367Z,8.28
2023-01-05T05:52:47.960Z,8.25
2023-01-05T05:55:24.594Z,8.24
2023-01-05T05:57:51.984Z,8.27
2023-01-05T06:00:19.509Z,8.26
2023-01-05T06:02:47.385Z,8.33
2023-01-05T06:05:14.870Z,8.35
2023-01-05T06:07:42.519Z,8.32
2023-01-05T06:10:12.679Z,8.37
2023-01-05T06:12:40.118Z,8.32
2023-01-05T06:15:08.329Z,8.30
2023-01-05T06:17:35.684Z,8.29
2023-01-05T06:20:03.614Z,8.38
2023-01-05T06:22:31.282Z,8.30
2023-01-05T06:24:58.568Z,8.27
2023-01-05T06:27:25.834Z,8.27
2023-01-05T06:29:53.825Z,8.26
2023-01-05T06:32:21.279Z,8.30
2023-01-05T06:34:48.617Z,8.24
2023-01-05T06:37:37.818Z,8.34
2023-01-05T06:40:15.544Z,8.33
2023-01-05T06:42:47.280Z,8.31
2023-01-05T06:45:15.833Z,8.35
2023-01-05T06:47:44.238Z,8.32
2023-01-05T06:50:11.692Z,8.26
2023-01-05T06:52:40.556Z,8.37
2023-01-05T06:55:10.299Z,8.40
2023-01-05T06:57:42.196Z,8.30
2023-01-05T07:00:11.598Z,8.30
2023-01-05T07:02:39.496Z,8.34
2023-01-05T07:05:08.154Z,8.36
2023-01-05T07:07:38.520Z,8.36
2023-01-05T07:10:07.826Z,8.33
2023-01-05T07:12:43.766Z,8.31
2023-01-05T07:15:11.505Z,8.31
2023-01-05T07:17:38.877Z,8.37
2023-01-05T07:20:08.178Z,8.39
2023-01-05T07:22:37.521Z,8.38
2023-01-05T07:25:05.336Z,8.35
2023-01-05T07:27:33.083Z,8.42
2023-01-05T07:30:00.461Z,8.35
2023-01-05T07:32:27.801Z,8.31
2023-01-05T07:34:56.196Z,8.35
2023-01-05T07:37:25.901Z,8.30
2023-01-05T07:39:54.565Z,8.31
2023-01-05T07:42:22.310Z,8.32
2023-01-05T07:44:52.374Z,8.35
2023-01-05T07:47:19.706Z,8.31
2023-01-05T07:49:47.257Z,8.32
2023-01-05T07:52:14.615Z,8.25
2023-01-05T07:54:41.971Z,8.01
2023-01-05T07:57:11.615Z,7.98
2023-01-05T07:59:39.316Z,7.91
2023-01-05T08:02:06.752Z,7.95
2023-01-05T08:04:34.202Z,8.00
2023-01-05T08:07:02.471Z,7.89
2023-01-05T08:09:48.809Z,7.75
2023-01-05T08:12:18.339Z,7.77
2023-01-05T08:14:45.860Z,7.80
2023-01-05T08:17:13.201Z,7.88
2023-01-05T08:19:41.671Z,7.93
2023-01-05T08:22:09.038Z,8.05
2023-01-05T08:24:37.837Z,8.05
2023-01-05T08:27:07.172Z,7.93
2023-01-05T08:29:34.592Z,7.83
2023-01-05T08:32:02.699Z,7.81
2023-01-05T08:34:34.597Z,7.74
2023-01-05T08:37:05.115Z,7.73
2023-01-05T08:39:32.589Z,7.73
2023-01-05T08:42:02.945Z,7.74
2023-01-05T08:44:31.112Z,7.75
2023-01-05T08:47:02.268Z,7.84
2023-01-05T08:49:29.717Z,7.76
2023-01-05T08:51:57.340Z,7.71
2023-01-05T08:54:26.276Z,7.77
2023-01-05T08:56:58.720Z,7.81
2023-01-05T08:59:28.951Z,7.80
2023-01-05T09:01:56.659Z,7.87
2023-01-05T09:04:25.044Z,7.91
2023-01-05T09:06:53.388Z,8.00
2023-01-05T09:09:24.349Z,8.10
2023-01-05T09:11:52.145Z,8.40
2023-01-05T09:14:19.491Z,8.57
2023-01-05T09:17:06.482Z,8.41
2023-01-05T09:19:34.370Z,8.20
2023-01-05T09:22:02.976Z,8.04
2023-01-05T09:24:30.356Z,8.01
2023-01-05T09:26:59.273Z,7.86
2023-01-05T09:29:26.841Z,7.98
2023-01-05T09:31:54.283Z,7.99
2023-01-05T09:34:21.782Z,8.07
2023-01-05T09:36:49.165Z,8.28
2023-01-05T09:39:16.487Z,8.30
2023-01-05T09:41:57.023Z,8.45
2023-01-05T09:44:42.789Z,8.42
2023-01-05T09:47:37.569Z,8.59
2023-01-05T09:50:07.554Z,8.60
2023-01-05T09:52:38.286Z,8.75
2023-01-05T09:55:21.924Z,8.77
2023-01-05T09:58:08.095Z,8.79
2023-01-05T10:00:37.360Z,8.79
2023-01-05T10:03:37.083Z,8.88
2023-01-05T10:06:06.460Z,8.92
2023-01-05T10:08:40.955Z,8.70
2023-01-05T10:11:33.074Z,8.99
2023-01-05T10:14:16.072Z,8.92
2023-01-05T10:16:45.203Z,8.62
2023-01-05T10:19:21.294Z,8.46
2023-01-05T10:22:07.736Z,8.77
2023-01-05T10:24:47.309Z,8.75
2023-01-05T10:27:34.852Z,8.77
2023-01-05T10:30:34.392Z,8.66
2023-01-05T10:33:25.985Z,8.40
2023-01-05T10:36:12.114Z,8.48
2023-01-05T10:38:40.510Z,8.22
2023-01-05T10:41:24.722Z,8.01
2023-01-05T10:44:31.203Z,7.90
2023-01-05T10:46:59.374Z,8.16
2023-01-05T10:49:30.227Z,8.30
2023-01-05T10:52:00.764Z,8.54
2023-01-05T10:54:49.166Z,8.29
2023-01-05T10:57:34.187Z,8.06
2023-01-05T11:00:11.271Z,8.19
2023-01-05T11:02:48.629Z,8.09
2023-01-05T11:05:32.304Z,8.05
2023-01-05T11:08:03.848Z,7.94
2023-01-05T11:10:51.332Z,8.03
2023-01-05T11:13:28.794Z,8.07
2023-01-05T11:16:20.702Z,8.18
2023-01-05T11:19:01.920Z,8.18
2023-01-05T11:21:39.498Z,8.05
2023-01-05T11:24:26.936Z,7.97
2023-01-05T11:27:00.153Z,7.90
2023-01-05T11:29:28.744Z,7.93
2023-01-05T11:31:59.091Z,8.27
2023-01-05T11:34:50.040Z,8.38
2023-01-05T11:37:30.937Z,8.40
2023-01-05T11:40:03.382Z,8.49
2023-01-05T11:42:34.220Z,8.38
2023-01-05T11:45:17.382Z,8.24
2023-01-05T11:47:46.323Z,8.19
2023-01-05T11:50:13.786Z,8.25
2023-01-05T11:52:46.556Z,8.47
2023-01-05T11:55:20.016Z,8.53
2023-01-05T11:57:59.412Z,8.78
2023-01-05T12:00:47.620Z,8.87
2023-01-05T12:03:27.115Z,8.78
2023-01-05T12:05:57.956Z,8.58
2023-01-05T12:08:44.816Z,8.72
2023-01-05T12:11:19.427Z,8.82
2023-01-05T12:14:07.066Z,8.74
2023-01-05T12:16:49.271Z,8.60
2023-01-05T12:19:34.839Z,8.60
2023-01-05T12:22:17.718Z,8.57
2023-01-05T12:25:19.213Z,8.44
2023-01-05T12:28:03.264Z,8.31
2023-01-05T12:34:13.758Z,8.25
2023-01-05T12:37:10.937Z,8.39
2023-01-05T12:39:38.279Z,8.53
2023-01-05T12:42:23.874Z,8.56
2023-01-05T12:45:03.443Z,8.45
2023-01-05T12:47:42.959Z,8.35
2023-01-05T12:50:13.731Z,8.30
2023-01-05T12:52:48.139Z,8.19
2023-01-05T12:55:22.409Z,7.98
2023-01-05T12:57:57.583Z,7.76
2023-01-05T13:00:28.881Z,7.69
2023-01-05T13:03:10.971Z,7.72
2023-01-05T13:05:48.984Z,7.71
2023-01-05T13:08:40.508Z,7.68
2023-01-05T13:11:11.520Z,7.73
2023-01-05T13:13:44.091Z,7.89
2023-01-05T13:16:32.928Z,7.91
2023-01-05T13:19:06.115Z,7.93
2023-01-05T13:21:36.337Z,7.85
2023-01-05T13:24:09.977Z,7.76
2023-01-05T13:26:38.490Z,7.69
2023-01-05T13:29:06.049Z,7.69
2023-01-05T13:31:41.906Z,7.72
2023-01-05T13:34:11.912Z,7.69
2023-01-05T13:36:45.488Z,7.63
2023-01-05T13:39:43.999Z,7.58
2023-01-05T13:42:38.170Z,7.52
2023-01-05T13:45:23.845Z,7.54
2023-01-05T13:48:13.140Z,7.49
2023-01-05T13:50:55.888Z,7.43
2023-01-05T13:53:27.967Z,7.35
2023-01-05T13:56:04.282Z,7.24
2023-01-05T13:58:40.774Z,7.09
2023-01-05T14:01:16.028Z,6.99
2023-01-05T14:03:57.580Z,6.96
2023-01-05T14:06:35.573Z,6.94
2023-01-05T14:09:08.549Z,6.90
2023-01-05T14:11:36.905Z,6.83
2023-01-05T14:14:11.218Z,6.79
2023-01-05T14:16:38.861Z,6.74
2023-01-05T14:19:26.300Z,6.71
2023-01-05T14:22:00.955Z,6.69
2023-01-05T14:24:48.291Z,6.63
2023-01-05T14:27:17.253Z,6.55
2023-01-05T14:29:44.899Z,6.51
2023-01-05T14:32:26.760Z,6.46
2023-01-05T14:35:06.465Z,6.48
2023-01-05T14:38:11.049Z,6.43
2023-01-05T14:40:45.841Z,6.38
2023-01-05T14:43:32.868Z,6.35
2023-01-05T14:46:18.662Z,6.34
2023-01-05T14:49:06.924Z,6.32
2023-01-05T14:51:36.667Z,6.32
2023-01-05T14:54:05.951Z,6.31
2023-01-05T14:56:36.363Z,6.25
2023-01-05T14:59:23.834Z,6.27
2023-01-05T15:02:00.669Z,6.24
2023-01-05T15:04:30.072Z,6.22
2023-01-05T15:07:03.373Z,6.24
2023-01-05T15:09:44.242Z,6.29
2023-01-05T15:12:50.899Z,6.27
2023-01-05T15:19:34.603Z,6.26
2023-01-05T15:22:36.295Z,6.26
2023-01-05T15:25:28.604Z,6.23
2023-01-05T15:28:23.652Z,6.17
2023-01-05T15:31:07.503Z,6.16
2023-01-05T15:33:46.012Z,6.16
2023-01-05T15:36:25.227Z,6.15
2023-01-05T15:38:52.789Z,6.14
2023-01-05T15:41:22.640Z,6.08
2023-01-05T15:43:51.329Z,6.08
2023-01-05T15:46:23.961Z,6.13
2023-01-05T15:48:55.242Z,6.14
2023-01-05T15:51:29.121Z,6.15
2023-01-05T15:54:06.079Z,6.13
2023-01-05T15:56:40.879Z,6.11
2023-01-05T15:59:28.671Z,6.10
2023-01-05T16:01:56.339Z,6.09
2023-01-05T16:04:24.929Z,6.05
2023-01-05T16:07:01.877Z,5.99
2023-01-05T16:09:37.311Z,6.01
2023-01-05T16:12:24.970Z,6.03
2023-01-05T16:15:04.728Z,6.00
2023-01-05T16:17:38.188Z,6.00
2023-01-05T16:20:16.205Z,5.98
2023-01-05T16:23:08.135Z,5.93
2023-01-05T16:25:42.221Z,5.94
2023-01-05T16:28:17.869Z,5.97
2023-01-05T16:30:48.896Z,5.95
2023-01-05T16:33:36.065Z,5.93
2023-01-05T16:36:20.599Z,5.97
2023-01-05T16:38:49.467Z,5.91
2023-01-05T16:41:27.108Z,5.84
2023-01-05T16:44:02.095Z,5.79
2023-01-05T16:46:38.053Z,5.69
2023-01-05T16:49:34.181Z,5.62
2023-01-05T16:52:05.469Z,5.55
2023-01-05T16:54:44.503Z,5.50
2023-01-05T16:57:31.052Z,5.47
2023-01-05T16:59:58.572Z,5.37
2023-01-05T17:02:42.633Z,5.40
2023-01-05T17:05:13.205Z,5.40
2023-01-05T17:07:44.958Z,5.39
2023-01-05T17:10:26.249Z,5.43
2023-01-05T17:13:00.840Z,5.50
2023-01-05T17:15:46.299Z,5.48
2023-01-05T17:20:51.764Z,5.43
2023-01-05T17:23:47.990Z,5.37
2023-01-05T17:26:30.705Z,5.40
2023-01-05T17:31:30.353Z,5.41
2023-01-05T17:33:59.532Z,5.47
2023-01-05T17:36:31.916Z,5.48
2023-01-05T17:39:00.917Z,5.50
2023-01-05T17:41:28.463Z,5.51
2023-01-05T17:43:56.465Z,5.50
2023-01-05T17:46:29.208Z,5.49
2023-01-05T17:49:00.730Z,5.51
2023-01-05T17:51:31.247Z,5.55
2023-01-05T17:54:02.621Z,5.56
2023-01-05T17:56:33.945Z,5.58
2023-01-05T17:59:05.587Z,5.56
2023-01-05T18:01:39.537Z,5.58
2023-01-05T18:04:10.943Z,5.56
2023-01-05T18:06:52.172Z,5.54
2023-01-05T18:11:53.756Z,5.53
2023-01-05T18:14:21.801Z,5.53
2023-01-05T18:16:49.858Z,5.53
2023-01-05T18:19:17.735Z,5.52
2023-01-05T18:21:45.736Z,5.50
2023-01-05T18:24:14.658Z,5.54
2023-01-05T18:26:53.934Z,5.52
2023-01-05T18:29:24.135Z,5.51
2023-01-05T18:31:54.172Z,5.52
2023-01-05T18:34:23.249Z,5.43
2023-01-05T18:36:58.298Z,5.39
2023-01-05T18:39:33.560Z,5.37
2023-01-05T18:42:01.011Z,5.36
2023-01-05T18:44:28.899Z,5.40
2023-01-05T18:46:56.643Z,5.40
2023-01-05T18:49:25.651Z,5.44
2023-01-05T18:51:53.525Z,5.45
2023-01-05T18:54:21.327Z,5.44
2023-01-05T18:56:48.866Z,5.46
2023-01-05T18:59:16.548Z,5.42
2023-01-05T19:01:45.514Z,5.39
2023-01-05T19:04:15.833Z,5.38
2023-01-05T19:06:44.208Z,5.36
2023-01-05T19:09:14.082Z,5.34
2023-01-05T19:11:49.078Z,5.28
2023-01-05T19:14:19.521Z,5.30
2023-01-05T19:16:49.217Z,5.34
2023-01-05T19:19:16.992Z,5.32
2023-01-05T19:21:45.445Z,5.27
2023-01-05T19:24:21.871Z,5.26
2023-01-05T19:26:51.028Z,5.27
2023-01-05T19:29:20.515Z,5.27
2023-01-05T19:31:49.345Z,5.23
2023-01-05T19:34:21.353Z,5.24
2023-01-05T19:36:49.780Z,5.26
2023-01-05T19:39:20.057Z,5.28
2023-01-05T19:41:49.054Z,5.24
2023-01-05T19:44:21.219Z,5.24
2023-01-05T19:46:51.996Z,5.26
2023-01-05T19:49:24.793Z,5.28
2023-01-05T19:51:53.119Z,5.26
2023-01-05T19:54:22.666Z,5.27
2023-01-05T19:56:50.884Z,5.27
2023-01-05T19:59:22.061Z,5.28
2023-01-05T20:01:49.755Z,5.31
2023-01-05T20:04:17.313Z,5.25
2023-01-05T20:06:45.919Z,5.21
2023-01-05T20:09:17.425Z,5.19
2023-01-05T20:11:51.699Z,5.24
2023-01-05T20:14:25.197Z,5.23
2023-01-05T20:17:01.886Z,5.26
2023-01-05T20:19:31.211Z,5.29
2023-01-05T20:22:00.956Z,5.30
2023-01-05T20:24:31.082Z,5.27
2023-01-05T20:27:02.470Z,5.27
2023-01-05T20:29:30.811Z,5.26
2023-01-05T20:32:20.159Z,5.24
2023-01-05T20:34:52.708Z,5.19
2023-01-05T20:37:23.777Z,5.13
2023-01-05T20:40:00.045Z,5.09
2023-01-05T20:42:29.480Z,5.05
2023-01-05T20:44:57.015Z,5.07
2023-01-05T20:47:26.242Z,5.04
2023-01-05T20:49:55.663Z,5.04
2023-01-05T20:52:23.117Z,5.03
2023-01-05T20:54:53.252Z,5.02
2023-01-05T20:57:21.679Z,4.98
2023-01-05T20:59:51.350Z,4.93
2023-01-05T21:02:24.369Z,4.89
2023-01-05T21:04:53.582Z,4.81
2023-01-05T21:07:21.645Z,4.76
2023-01-05T21:09:51.658Z,4.80
2023-01-05T21:12:20.269Z,4.77
2023-01-05T21:14:47.773Z,4.76
2023-01-05T21:17:15.469Z,4.80
2023-01-05T21:19:43.022Z,4.81
2023-01-05T21:22:10.701Z,4.80
2023-01-05T21:24:38.314Z,4.78
2023-01-05T21:27:05.863Z,4.81
2023-01-05T21:29:34.327Z,4.77
2023-01-05T21:32:02.331Z,4.74
2023-01-05T21:34:29.856Z,4.78
2023-01-05T21:36:57.200Z,4.76
2023-01-05T21:39:26.110Z,4.76
2023-01-05T21:42:26.307Z,4.75
2023-01-05T21:44:53.829Z,4.73
2023-01-05T21:47:21.324Z,4.74
2023-01-05T21:49:48.800Z,4.76
2023-01-05T21:52:35.011Z,4.75
2023-01-05T21:55:21.042Z,4.79
2023-01-05T21:57:48.425Z,4.80
2023-01-05T22:00:16.783Z,4.77
2023-01-05T22:02:44.273Z,4.77
2023-01-05T22:05:11.760Z,4.78
2023-01-05T22:07:39.465Z,4.76
2023-01-05T22:10:07.493Z,4.78
2023-01-05T22:12:34.896Z,4.77
2023-01-05T22:18:05.633Z,4.72
2023-01-05T22:20:33.101Z,4.73
2023-01-05T22:23:00.490Z,4.73
2023-01-05T22:25:28.001Z,4.71
2023-01-05T22:27:55.509Z,4.70
2023-01-05T22:30:23.025Z,4.70
2023-01-05T22:32:50.562Z,4.72
2023-01-05T22:35:18.194Z,4.73
2023-01-05T22:37:45.772Z,4.72
2023-01-05T22:40:13.436Z,4.70
2023-01-05T22:42:40.867Z,4.69
2023-01-05T22:45:08.904Z,4.68
2023-01-05T22:47:36.549Z,4.71
2023-01-05T22:50:06.056Z,4.70
2023-01-05T22:52:33.622Z,4.74
2023-01-05T22:55:01.134Z,4.72
2023-01-05T22:57:28.703Z,4.72
2023-01-05T22:59:56.267Z,4.73
2023-01-05T23:02:23.833Z,4.76
2023-01-05T23:04:51.409Z,4.77
2023-01-05T23:07:20.827Z,4.80
2023-01-05T23:09:48.281Z,4.78
2023-01-05T23:12:15.753Z,4.76
2023-01-05T23:14:43.283Z,4.73
2023-01-05T23:17:12.387Z,4.68
2023-01-05T23:19:39.814Z,4.68
2023-01-05T23:22:09.064Z,4.61
2023-01-05T23:24:37.683Z,4.62
2023-01-05T23:27:05.140Z,4.61
2023-01-05T23:29:32.626Z,4.62
2023-01-05T23:32:00.098Z,4.59
2023-01-05T23:34:27.687Z,4.58
2023-01-05T23:36:55.162Z,4.62
2023-01-05T23:39:22.557Z,4.61
2023-01-05T23:41:49.967Z,4.60
2023-01-05T23:44:17.388Z,4.59
2023-01-05T23:46:44.794Z,4.58
2023-01-05T23:49:12.247Z,4.57
2023-01-05T23:51:39.719Z,4.56
2023-01-05T23:54:07.239Z,4.58
2023-01-05T23:56:34.610Z,4.61
2023-01-05T23:59:11.570Z,4.53
